Flight Track Log - Related Links

Times and Time Zones

All times are in EDT time to prevent confusion due to time zone crossing. See the UAL1177 flight status page for this flight to view local times or setup timezone preferences in your user account.

Time Position Orientation Groundspeed Altitude Reporting Facility
EDT Latitude Longitude Course Direction KTS MPH feet Rate Location/Type
Sun 04:29:44 PM 29.9719 -90.2564 324° Northwest 164 189 1,000  Level Houston Center
Sun 04:30:20 PM 29.9450 -90.2647 195° South 193 222 2,000 1,569 Climbing Houston Center
Sun 04:30:49 PM 29.9319 -90.2892 238° Southwest 215 247 2,700 2,459 Climbing Houston Center
Sun 04:31:21 PM 29.9533 -90.3339 299° West 272 313 4,500 2,852 Climbing Houston Center
Sun 04:31:50 PM 29.9756 -90.3469 333° Northwest 264 304 5,600 2,571 Climbing Houston Center
Sun 04:32:00 PM 30.2251 -90.4918 319° Northwest  Level FlightAware Approximate
Sun 04:32:52 PM 30.0450 -90.3875 333° Northwest 273 314 8,400  Level Houston Center
Sun 04:33:00 PM 30.3062 -90.5718 324° Northwest  Level FlightAware Approximate
Sun 04:33:54 PM 30.1167 -90.4281 334° Northwest 281 323 11,200  Level Houston Center
Sun 04:34:00 PM 30.3927 -90.6439 324° Northwest  Level FlightAware Approximate
Sun 04:34:55 PM 30.2025 -90.4778 333° Northwest 337 388 13,100  Level Houston Center
Sun 04:35:57 PM 30.3144 -90.5458 332° Northwest 374 430 16,200 2,758 Climbing Houston Center
Sun 04:36:59 PM 30.3808 -90.6397 309° West 374 430 18,800 2,195 Climbing Houston Center
Sun 04:38:00 PM 30.4450 -90.7381 307° West 382 440 20,700 1,805 Climbing Houston Center
Sun 04:39:02 PM 30.5139 -90.8389 308° West 395 455 22,500 1,742 Climbing Houston Center
Sun 04:40:04 PM 30.5878 -90.9436 309° West 416 479 24,300 1,645 Climbing Houston Center
Sun 04:41:06 PM 30.6628 -91.0456 311° West 416 479 25,900 1,659 Climbing Houston Center
Sun 04:42:07 PM 30.7492 -91.1514 314° West 431 496 27,700 1,463 Climbing Houston Center
Sun 04:43:09 PM 30.8319 -91.2553 313° West 438 504 28,900 1,258 Climbing Houston Center
Sun 04:44:11 PM 30.9333 -91.3847 312° West 454 522 30,300 1,452 Climbing Houston Center
Sun 04:45:13 PM 31.0194 -91.4933 313° West 457 526 31,900 1,463 Climbing Houston Center
Sun 04:46:14 PM 31.1033 -91.6017 312° West 453 521 33,300 1,366 Climbing Houston Center
Sun 04:47:16 PM 31.1861 -91.7083 312° West 447 514 34,700 1,306 Climbing Houston Center
Sun 04:48:18 PM 31.2689 -91.8122 313° West 442 509 36,000 1,161 Climbing Houston Center
Sun 04:49:20 PM 31.3489 -91.9158 312° West 435 501 37,100 976 Climbing Houston Center
Sun 04:50:21 PM 31.4422 -92.0381 312° West 424 488 38,000 439 Climbing Houston Center
Sun 04:51:23 PM 31.5119 -92.1300 312° West 427 491 38,000  Level Houston Center
Sun 04:52:25 PM 31.5908 -92.2336 312° West 427 491 38,000 -48 Level Houston Center
Sun 04:53:27 PM 31.6856 -92.3544 313° West 423 487 37,900 -49 Descending Houston Center
Sun 04:54:28 PM 31.7617 -92.4558 311° West 418 481 37,900 49 Level Houston Center
Sun 04:55:30 PM 31.8381 -92.5572 312° West 416 479 38,000  Climbing Houston Center
Sun 04:56:32 PM 31.9147 -92.6592 312° West 417 480 37,900  Descending Houston Center
Sun 04:57:34 PM 31.9919 -92.7611 312° West 417 480 38,000 49 Climbing Houston Center
Sun 04:58:35 PM 32.0753 -92.8714 312° West 418 481 38,000  Level Houston Center
Sun 04:59:34 PM 32.1586 -92.9842 311° West 420 483 38,000  Level Fort Worth Center
Sun 05:00:34 PM 32.2286 -93.0789 311° West 420 483 38,000  Level Fort Worth Center
Sun 05:01:34 PM 32.3114 -93.1831 313° West 401 461 38,000  Level Fort Worth Center
Sun 05:02:34 PM 32.3881 -93.2878 311° West 407 468 38,000  Level Fort Worth Center
Sun 05:03:34 PM 32.4642 -93.3878 312° West 412 474 38,000  Level Fort Worth Center
Sun 05:04:34 PM 32.5386 -93.4906 311° West 412 474 38,000  Level Fort Worth Center
Sun 05:05:34 PM 32.6125 -93.5933 310° West 412 474 38,000  Level Fort Worth Center
Sun 05:06:34 PM 32.6822 -93.6889 311° West 406 467 38,000  Level Fort Worth Center
Sun 05:07:34 PM 32.7542 -93.7897 310° West 406 467 38,000  Level Fort Worth Center
Sun 05:08:34 PM 32.8117 -93.9036 301° West 406 467 38,000  Level Fort Worth Center
Sun 05:09:34 PM 32.8628 -94.0178 298° West 401 461 38,000  Level Fort Worth Center
Sun 05:10:34 PM 32.9158 -94.1344 298° West 401 461 38,000  Level Fort Worth Center
Sun 05:11:34 PM 32.9647 -94.2517 296° West 401 461 38,000  Level Fort Worth Center
Sun 05:12:34 PM 33.0178 -94.3661 299° West 401 461 38,000  Level Fort Worth Center
Sun 05:13:34 PM 33.0686 -94.4808 298° West 401 461 38,000  Level Fort Worth Center
Sun 05:14:34 PM 33.1169 -94.5958 297° West 401 461 38,000  Level Fort Worth Center
Sun 05:15:34 PM 33.1678 -94.7133 297° West 401 461 38,000  Level Fort Worth Center
Sun 05:16:34 PM 33.2203 -94.8286 299° West 401 461 38,000  Level Fort Worth Center
Sun 05:17:34 PM 33.2728 -94.9486 298° West 401 461 38,000  Level Fort Worth Center
Sun 05:18:34 PM 33.3231 -95.0667 297° West 401 461 38,000  Level Fort Worth Center
Sun 05:19:34 PM 33.3664 -95.1600 299° West 401 461 38,000  Level Fort Worth Center
Sun 05:20:34 PM 33.4189 -95.2906 296° West 396 456 38,000  Level Fort Worth Center
Sun 05:21:34 PM 33.4708 -95.4089 298° West 401 461 38,000  Level Fort Worth Center
Sun 05:22:34 PM 33.5228 -95.5247 298° West 401 461 38,000  Level Fort Worth Center
Sun 05:23:34 PM 33.5789 -95.6533 298° West 401 461 38,000  Level Fort Worth Center
Sun 05:24:34 PM 33.6283 -95.7694 297° West 396 456 38,000  Level Fort Worth Center
Sun 05:25:34 PM 33.6800 -95.8908 297° West 403 464 38,000  Level Fort Worth Center
Sun 05:26:34 PM 33.7336 -96.0097 298° West 403 464 38,000  Level Fort Worth Center
Sun 05:27:34 PM 33.7850 -96.1339 296° West 403 464 38,000  Level Fort Worth Center
Sun 05:28:34 PM 33.8361 -96.2533 297° West 403 464 38,000  Level Fort Worth Center
Sun 05:29:34 PM 33.8853 -96.3775 296° West 403 464 38,000  Level Fort Worth Center
Sun 05:30:34 PM 33.9383 -96.4972 298° West 403 464 38,000  Level Fort Worth Center
Sun 05:31:34 PM 33.9872 -96.6194 296° West 403 464 38,000  Level Fort Worth Center
Sun 05:32:34 PM 34.0358 -96.7367 297° West 403 464 38,000  Level Fort Worth Center
Sun 05:33:34 PM 34.0867 -96.8542 298° West 403 464 38,000  Level Fort Worth Center
Sun 05:34:34 PM 34.1244 -96.9669 292° West 403 464 38,000  Level Fort Worth Center
Sun 05:35:34 PM 34.1731 -97.0872 296° West 398 458 38,000  Level Fort Worth Center
Sun 05:36:34 PM 34.2294 -97.2050 300° West 398 458 38,000  Level Fort Worth Center
Sun 05:37:34 PM 34.3111 -97.3053 315° West 410 472 38,000  Level Fort Worth Center
Sun 05:38:34 PM 34.3903 -97.4061 314° West 415 478 38,000  Level Fort Worth Center
Sun 05:39:34 PM 34.4697 -97.5067 314° West 415 478 38,000  Level Fort Worth Center
Sun 05:40:34 PM 34.5508 -97.6103 314° West 415 478 38,000  Level Fort Worth Center
Sun 05:41:34 PM 34.6300 -97.7114 314° West 415 478 38,000  Level Fort Worth Center
Sun 05:42:34 PM 34.7111 -97.8153 314° West 420 483 38,000  Level Fort Worth Center
Sun 05:43:34 PM 34.7900 -97.9167 313° West 420 483 38,000  Level Fort Worth Center
Sun 05:44:34 PM 34.8667 -98.0183 313° West 420 483 38,000  Level Fort Worth Center
Sun 05:45:34 PM 34.9453 -98.1153 315° West 420 483 38,000  Level Fort Worth Center
Sun 05:46:34 PM 35.0197 -98.2172 312° West 415 478 38,000  Level Fort Worth Center
Sun 05:47:34 PM 35.0964 -98.3169 313° West 409 471 38,000  Level Fort Worth Center
Sun 05:48:34 PM 35.1706 -98.4142 313° West 399 459 38,000  Level Fort Worth Center
Sun 05:49:34 PM 35.2450 -98.5092 314° West 394 453 38,000  Level Fort Worth Center
Sun 05:50:34 PM 35.3214 -98.6042 315° West 389 448 38,000  Level Fort Worth Center
Sun 05:51:34 PM 35.3933 -98.7072 311° West 389 448 38,000  Level Fort Worth Center
Sun 05:52:34 PM 35.4672 -98.8025 314° West 395 455 38,000  Level Fort Worth Center
Sun 05:54:30 PM 35.6164 -98.9997 313° West 393 452 38,000  Level Albuquerque Center
Sun 05:54:51 PM 35.6308 -99.0197 312° West 392 451 38,000  Level Kansas City Center
Sun 05:55:52 PM 35.7189 -99.1392 312° West 394 453 38,000  Level Kansas City Center
Sun 05:56:54 PM 35.7919 -99.2392 312° West 394 453 38,000  Level Kansas City Center
Sun 05:57:56 PM 35.8658 -99.3397 312° West 397 457 38,000  Level Kansas City Center
Sun 05:58:57 PM 35.9456 -99.4472 313° West 397 457 38,000  Level Kansas City Center
Sun 06:00:00 PM 36.0114 -99.5581 306° West 396 456 38,000  Level Kansas City Center
Sun 06:01:02 PM 36.0681 -99.6739 301° West 393 452 38,000  Level Kansas City Center
Sun 06:02:03 PM 36.1239 -99.7883 301° West 391 450 38,000  Level Kansas City Center
Sun 06:03:05 PM 36.1803 -99.9042 301° West 391 450 38,000  Level Kansas City Center
Sun 06:04:07 PM 36.2375 -100.0200 302° West 392 451 38,000  Level Kansas City Center
Sun 06:05:08 PM 36.2933 -100.1372 301° West 393 452 38,000  Level Kansas City Center
Sun 06:06:10 PM 36.3500 -100.2544 301° West 395 455 38,000  Level Kansas City Center
Sun 06:07:11 PM 36.4172 -100.3956 301° West 395 455 38,000  Level Kansas City Center
Sun 06:08:13 PM 36.4753 -100.5114 302° West 395 455 38,000  Level Kansas City Center
Sun 06:09:15 PM 36.5283 -100.6247 300° West 395 455 38,000  Level Kansas City Center
Sun 06:10:16 PM 36.5908 -100.7578 300° West 397 457 38,000  Level Kansas City Center
Sun 06:11:18 PM 36.6436 -100.8700 300° West 394 453 38,000  Level Kansas City Center
Sun 06:12:20 PM 36.6956 -100.9806 300° West 389 448 38,000  Level Kansas City Center
Sun 06:13:21 PM 36.7561 -101.1097 300° West 386 444 38,000  Level Kansas City Center
Sun 06:14:23 PM 36.8081 -101.2208 300° West 387 445 38,000  Level Kansas City Center
Sun 06:15:24 PM 36.8683 -101.3497 300° West 385 443 38,000  Level Kansas City Center
Sun 06:16:26 PM 36.9194 -101.4597 300° West 383 441 38,000  Level Kansas City Center
Sun 06:17:28 PM 36.9783 -101.5889 300° West 382 440 38,000  Level Kansas City Center
Sun 06:18:29 PM 37.0294 -101.6994 300° West 382 440 38,000  Level Kansas City Center
Sun 06:19:31 PM 37.0792 -101.8086 300° West 379 436 38,000  Level Kansas City Center
Sun 06:20:33 PM 37.1381 -101.9350 300° West 376 433 38,000 -290 Level Kansas City Center
Sun 06:21:35 PM 37.1875 -102.0442 300° West 376 433 37,400 -829 Descending Kansas City Center
Sun 06:22:36 PM 37.2447 -102.1706 300° West 373 429 36,300 -683 Descending Kansas City Center
Sun 06:23:38 PM 37.2958 -102.2817 300° West 380 437 36,000 -140 Descending Kansas City Center
Sun 06:24:45 PM 37.3558 -102.4167 299° West 382 440 36,000  Level Albuquerque Center
Sun 06:25:41 PM 37.4036 -102.5242 299° West 384 442 36,000  Level Kansas City Center
Sun 06:26:43 PM 37.4550 -102.6361 300° West 384 442 36,000  Level Kansas City Center
Sun 06:27:33 PM 37.4986 -102.7333 300° West 385 443 36,000 -387 Level Denver Center
Sun 06:28:47 PM 37.6047 -102.8069 331° Northwest 409 471 35,200 -882 Descending Denver Center
Sun 06:29:49 PM 37.7536 -102.8531 346° North 429 494 34,000 -1,073 Descending Denver Center
Sun 06:30:50 PM 37.8653 -102.8892 346° North 431 496 33,000 -1,024 Descending Denver Center
Sun 06:31:52 PM 37.9703 -102.9214 346° North 417 480 31,900 -1,073 Descending Denver Center
Sun 06:32:53 PM 38.0864 -102.9589 346° North 396 456 30,800 -927 Descending Denver Center
Sun 06:33:55 PM 38.1867 -102.9908 346° North 390 449 30,000 -1,016 Descending Denver Center
Sun 06:34:57 PM 38.3050 -103.0292 346° North 390 449 28,700 -976 Descending Denver Center
Sun 06:35:58 PM 38.4072 -103.0600 347° North 392 451 28,000 -341 Descending Denver Center
Sun 06:37:00 PM 38.5236 -103.0975 346° North 390 449 28,000  Level Denver Center
Sun 06:38:01 PM 38.5956 -103.1828 317° Northwest 380 437 28,000  Level Denver Center
Sun 06:39:03 PM 38.6603 -103.2731 313° West 366 421 28,000  Level Denver Center
Sun 06:40:04 PM 38.7356 -103.3817 312° West 364 419 28,000  Level Denver Center
Sun 06:41:18 PM 38.6933 -103.5147 248° West 354 407 28,000  Level Denver Center
Sun 06:42:20 PM 38.6039 -103.4756 161° South 366 421 28,000  Level Denver Center
Sun 06:43:21 PM 38.5319 -103.3753 133° Southeast 389 448 28,000  Level Denver Center
Sun 06:44:23 PM 38.4808 -103.2383 115° Southeast 398 458 28,000  Level Denver Center
Sun 06:45:24 PM 38.5672 -103.1714 31° Northeast 403 464 28,000  Level Denver Center
Sun 06:46:26 PM 38.6461 -103.2542 321° Northwest 347 399 28,000  Level Denver Center
Sun 06:47:27 PM 38.7067 -103.3369 313° West 336 387 28,000  Level Denver Center
Sun 06:48:29 PM 38.7414 -103.4350 294° West 333 383 28,000  Level Denver Center
Sun 06:49:30 PM 38.6772 -103.5189 226° Southwest 319 367 28,000  Level Denver Center
Sun 06:50:32 PM 38.6083 -103.4828 158° South 334 384 28,000 -488 Level Denver Center
Sun 06:51:33 PM 38.5900 -103.3297 99° East 374 430 27,000 -1,171 Descending Denver Center
Sun 06:52:35 PM 38.6769 -103.2839 22° Northeast 366 421 25,600 -756 Descending Denver Center
Sun 06:53:48 PM 38.7472 -103.3528 323° Northwest 348 400 25,300 -356 Descending Denver Center
Sun 06:54:50 PM 38.8306 -103.4744 311° West 351 404 24,800 -581 Descending Denver Center
Sun 06:55:52 PM 38.9006 -103.5803 310° West 351 404 24,100 -683 Descending Denver Center
Sun 06:56:53 PM 38.9597 -103.6694 310° West 349 402 23,400 -683 Descending Denver Center
Sun 06:57:55 PM 39.0189 -103.7586 311° West 345 397 22,700 -683 Descending Denver Center
Sun 06:58:56 PM 39.0886 -103.8631 311° West 345 397 22,000 -683 Descending Denver Center
Sun 06:59:58 PM 39.1478 -103.9517 311° West 343 395 21,300 -726 Descending Denver Center
Sun 07:01:00 PM 39.2169 -104.0556 311° West 343 395 20,500 -829 Descending Denver Center
Sun 07:02:01 PM 39.2842 -104.1525 312° West 352 405 19,600 -1,024 Descending Denver Center
Sun 07:03:03 PM 39.3686 -104.2147 330° Northwest 349 402 18,400 -1,022 Descending Denver Center
Sun 07:04:16 PM 39.4558 -104.2853 328° Northwest 342 394 17,300 -1,156 Descending Denver Center
Sun 07:05:18 PM 39.5514 -104.3631 328° Northwest 331 381 15,800 -1,113 Descending Denver Center
Sun 07:06:20 PM 39.6247 -104.4242 327° Northwest 314 361 15,000 -976 Descending Denver Center
Sun 07:07:21 PM 39.6931 -104.4789 328° Northwest 291 335 13,800 -927 Descending Denver Center
Sun 07:08:23 PM 39.7650 -104.5236 334° Northwest 271 312 13,100 -1,171 Descending Denver Center
Sun 07:09:24 PM 39.8403 -104.5222 North 273 314 11,400 -1,024 Descending Denver Center
Sun 07:10:26 PM 39.9142 -104.5217 360° North 269 310 11,000 -439 Descending Denver Center
Sun 07:11:27 PM 39.9903 -104.5194 North 257 296 10,500 -780 Descending Denver Center
Sun 07:12:29 PM 40.0567 -104.5167 North 243 280 9,400 -1,220 Descending Denver Center
Sun 07:13:30 PM 40.1092 -104.5550 331° Northwest 231 266 8,000 -1,377 Descending Denver Center

Login

Don't have an account? Register now (free) for customized features, flight alerts, and more!